createdAt,value
2022-10-23T00:01:16.792Z,101814.84
2022-10-23T00:03:44.241Z,101821.06
2022-10-23T00:06:11.698Z,101790.56
2022-10-23T00:08:38.336Z,101806.03
2022-10-23T00:11:13.683Z,101793.59
2022-10-23T00:13:40.639Z,101798.81
2022-10-23T00:16:08.230Z,101799.97
2022-10-23T00:18:35.295Z,101784.97
2022-10-23T00:21:02.711Z,101797.97
2022-10-23T00:23:29.231Z,101797.97
2022-10-23T00:25:55.655Z,101791.91
2022-10-23T00:28:22.196Z,101794.78
2022-10-23T00:30:48.717Z,101797.38
2022-10-23T00:33:15.161Z,101795.84
2022-10-23T00:35:42.716Z,101803.59
2022-10-23T00:38:10.555Z,101813.22
2022-10-23T00:40:37.950Z,101803.44
2022-10-23T00:43:05.276Z,101791.16
2022-10-23T00:45:33.415Z,101797.69
2022-10-23T00:48:01.747Z,101806.13
2022-10-23T00:50:31.651Z,101806.41
2022-10-23T00:53:01.715Z,101793.97
2022-10-23T00:55:29.218Z,101813.59
2022-10-23T00:57:56.038Z,101806.28
2022-10-23T01:00:26.282Z,101812.19
2022-10-23T01:02:54.572Z,101813.22
2022-10-23T01:05:27.142Z,101822.25
2022-10-23T01:07:59.479Z,101820.03
2022-10-23T01:10:39.259Z,101820.03
2022-10-23T01:13:12.573Z,101817.88
2022-10-23T01:15:45.035Z,101811.19
2022-10-23T01:18:25.896Z,101817.47
2022-10-23T01:21:17.951Z,101820.03
2022-10-23T01:24:04.208Z,101822.00
2022-10-23T01:26:39.563Z,101820.75
2022-10-23T01:29:26.004Z,101812.44
2022-10-23T01:32:00.573Z,101821.88
2022-10-23T01:34:32.794Z,101807.50
2022-10-23T01:37:03.941Z,101814.13
2022-10-23T01:39:40.817Z,101805.63
2022-10-23T01:42:13.270Z,101801.34
2022-10-23T01:44:48.375Z,101800.50
2022-10-23T01:47:18.467Z,101803.34
2022-10-23T01:49:47.451Z,101790.50
2022-10-23T01:52:17.499Z,101755.06
2022-10-23T01:54:46.309Z,101795.38
2022-10-23T01:57:16.285Z,101799.53
2022-10-23T01:59:48.315Z,101770.75
2022-10-23T02:02:17.845Z,101788.34
2022-10-23T02:05:03.500Z,101787.38
2022-10-23T02:07:30.309Z,101793.91
2022-10-23T02:09:56.723Z,101785.13
2022-10-23T02:12:44.864Z,101780.47
2022-10-23T02:15:36.267Z,101782.56
2022-10-23T02:18:21.528Z,101782.16
2022-10-23T02:20:58.863Z,101785.84
2022-10-23T02:23:40.112Z,101734.56
2022-10-23T02:26:20.900Z,101777.56
2022-10-23T02:28:52.155Z,101756.28
2022-10-23T02:31:22.150Z,101733.81
2022-10-23T02:33:49.018Z,101758.56
2022-10-23T02:36:19.494Z,101757.97
2022-10-23T02:38:45.986Z,101755.97
2022-10-23T02:41:18.087Z,101751.69
2022-10-23T02:44:10.522Z,101739.78
2022-10-23T02:46:48.963Z,101756.69
2022-10-23T02:49:36.525Z,101747.84
2022-10-23T02:52:06.522Z,101751.53
2022-10-23T02:54:54.699Z,101747.84
2022-10-23T02:57:34.908Z,101738.16
2022-10-23T03:00:07.939Z,101707.16
2022-10-23T03:02:44.211Z,101729.09
2022-10-23T03:05:15.363Z,101723.41
2022-10-23T03:07:42.369Z,101711.63
2022-10-23T03:10:09.446Z,101709.44
2022-10-23T03:12:36.024Z,101710.28
2022-10-23T03:15:02.371Z,101692.94
2022-10-23T03:17:28.762Z,101706.00
2022-10-23T03:19:55.167Z,101706.66
2022-10-23T03:22:21.532Z,101697.59
2022-10-23T03:24:47.884Z,101689.31
2022-10-23T03:27:15.133Z,101703.91
2022-10-23T03:29:44.001Z,101694.00
2022-10-23T03:32:10.364Z,101694.16
2022-10-23T03:34:36.844Z,101693.09
2022-10-23T03:37:03.261Z,101678.91
2022-10-23T03:39:29.597Z,101683.66
2022-10-23T03:41:56.035Z,101677.50
2022-10-23T03:44:22.389Z,101678.13
2022-10-23T03:46:48.785Z,101653.31
2022-10-23T03:49:15.252Z,101680.81
2022-10-23T03:51:41.704Z,101663.78
2022-10-23T03:54:08.511Z,101671.69
2022-10-23T03:56:35.009Z,101671.47
2022-10-23T03:59:01.415Z,101673.59
2022-10-23T04:01:27.954Z,101676.34
2022-10-23T04:03:54.436Z,101682.56
2022-10-23T04:06:20.791Z,101678.28
2022-10-23T04:08:47.178Z,101681.34
2022-10-23T04:11:13.638Z,101687.03
2022-10-23T04:13:40.040Z,101680.97
2022-10-23T04:16:06.557Z,101670.53
2022-10-23T04:18:32.907Z,101663.53
2022-10-23T04:20:59.258Z,101667.22
2022-10-23T04:23:25.599Z,101666.38
2022-10-23T04:25:52.029Z,101654.03
2022-10-23T04:28:18.386Z,101657.09
2022-10-23T04:30:44.732Z,101664.69
2022-10-23T04:33:11.084Z,101666.13
2022-10-23T04:35:37.464Z,101652.19
2022-10-23T04:38:03.951Z,101658.47
2022-10-23T04:40:30.325Z,101660.16
2022-10-23T04:42:56.685Z,101637.66
2022-10-23T04:45:23.053Z,101648.94
2022-10-23T04:47:49.525Z,101653.69
2022-10-23T04:50:16.450Z,101649.50
2022-10-23T04:52:43.095Z,101649.25
2022-10-23T04:55:09.826Z,101659.63
2022-10-23T04:57:36.259Z,101663.91
2022-10-23T05:00:05.921Z,101665.47
2022-10-23T05:02:32.423Z,101670.56
2022-10-23T05:04:58.757Z,101663.78
2022-10-23T05:07:25.099Z,101656.03
2022-10-23T05:09:51.504Z,101651.69
2022-10-23T05:12:18.343Z,101655.94
2022-10-23T05:14:44.688Z,101659.06
2022-10-23T05:17:22.638Z,101656.00
2022-10-23T05:19:55.061Z,101659.59
2022-10-23T05:22:25.372Z,101652.25
2022-10-23T05:24:51.849Z,101621.53
2022-10-23T05:27:18.199Z,101643.50
2022-10-23T05:29:44.600Z,101636.28
2022-10-23T05:32:14.393Z,101640.06
2022-10-23T05:34:41.991Z,101630.47
2022-10-23T05:37:11.226Z,101625.41
2022-10-23T05:39:37.820Z,101600.06
2022-10-23T05:42:04.313Z,101622.63
2022-10-23T05:44:30.664Z,101614.69
2022-10-23T05:46:56.995Z,101613.13
2022-10-23T05:49:26.866Z,101608.59
2022-10-23T05:51:53.292Z,101612.28
2022-10-23T05:54:19.640Z,101608.59
2022-10-23T05:56:46.048Z,101575.53
2022-10-23T05:59:12.412Z,101602.31
2022-10-23T06:01:38.961Z,101594.19
2022-10-23T06:04:05.801Z,101600.69
2022-10-23T06:06:32.192Z,101597.19
2022-10-23T06:08:58.537Z,101596.38
2022-10-23T06:11:24.994Z,101601.16
2022-10-23T06:13:51.493Z,101606.63
2022-10-23T06:16:20.584Z,101599.78
2022-10-23T06:18:47.779Z,101591.81
2022-10-23T06:21:14.891Z,101595.41
2022-10-23T06:23:43.764Z,101599.78
2022-10-23T06:26:12.500Z,101589.31
2022-10-23T06:28:39.179Z,101553.88
2022-10-23T06:31:07.118Z,101583.81
2022-10-23T06:33:33.919Z,101549.75
2022-10-23T06:36:00.302Z,101584.44
2022-10-23T06:38:26.686Z,101560.59
2022-10-23T06:40:54.416Z,101590.19
2022-10-23T06:43:20.954Z,101595.88
2022-10-23T06:45:47.403Z,101595.97
2022-10-23T06:48:13.967Z,101596.13
2022-10-23T06:50:40.413Z,101586.53
2022-10-23T06:53:07.376Z,101583.16
2022-10-23T06:55:33.895Z,101564.97
2022-10-23T06:58:00.395Z,101591.41
2022-10-23T07:00:26.917Z,101601.53
2022-10-23T07:02:53.348Z,101584.34
2022-10-23T07:05:20.436Z,101591.72
2022-10-23T07:07:46.810Z,101600.44
2022-10-23T07:12:40.679Z,101595.44
2022-10-23T07:15:08.155Z,101589.22
2022-10-23T07:17:34.482Z,101592.00
2022-10-23T07:20:00.844Z,101589.16
2022-10-23T07:22:27.183Z,101585.31
2022-10-23T07:24:53.523Z,101577.66
2022-10-23T07:27:20.054Z,101581.69
2022-10-23T07:29:50.287Z,101577.41
2022-10-23T07:32:16.688Z,101582.16
2022-10-23T07:34:43.096Z,101572.25
2022-10-23T07:37:09.438Z,101572.75
2022-10-23T07:39:35.795Z,101570.44
2022-10-23T07:42:02.166Z,101571.81
2022-10-23T07:44:28.506Z,101570.97
2022-10-23T07:46:54.854Z,101569.50
2022-10-23T07:49:21.232Z,101563.78
2022-10-23T07:51:50.555Z,101558.78
2022-10-23T07:54:18.617Z,101552.41
2022-10-23T07:56:44.994Z,101549.75
2022-10-23T07:59:14.794Z,101541.22
2022-10-23T08:01:42.907Z,101515.13
2022-10-23T08:04:10.407Z,101512.81
2022-10-23T08:06:36.765Z,101526.72
2022-10-23T08:09:06.310Z,101532.78
2022-10-23T08:11:35.483Z,101529.09
2022-10-23T08:14:04.595Z,101521.06
2022-10-23T08:16:32.853Z,101513.41
2022-10-23T08:18:59.222Z,101519.97
2022-10-23T08:21:25.611Z,101519.47
2022-10-23T08:23:59.487Z,101511.22
2022-10-23T08:26:29.331Z,101514.41
2022-10-23T08:28:58.281Z,101509.38
2022-10-23T08:31:24.934Z,101505.03
2022-10-23T08:33:51.365Z,101490.69
2022-10-23T08:36:23.708Z,101506.03
2022-10-23T08:38:53.522Z,101493.91
2022-10-23T08:41:32.273Z,101493.25
2022-10-23T08:43:58.603Z,101493.88
2022-10-23T08:46:30.048Z,101504.84
2022-10-23T08:49:16.546Z,101500.63
2022-10-23T08:51:46.884Z,101497.41
2022-10-23T08:54:19.346Z,101494.03
2022-10-23T08:56:52.228Z,101498.25
2022-10-23T08:59:39.873Z,101485.56
2022-10-23T09:02:26.768Z,101465.50
2022-10-23T09:04:55.700Z,101479.63
2022-10-23T09:08:01.271Z,101481.63
2022-10-23T09:10:40.374Z,101471.03
2022-10-23T09:13:32.337Z,101474.06
2022-10-23T09:16:10.753Z,101476.22
2022-10-23T09:18:40.165Z,101468.44
2022-10-23T09:21:09.831Z,101467.19
2022-10-23T09:23:36.304Z,101464.59
2022-10-23T09:26:12.591Z,101437.63
2022-10-23T09:28:47.338Z,101450.31
2022-10-23T09:31:13.743Z,101422.34
2022-10-23T09:33:40.424Z,101435.81
2022-10-23T09:36:17.915Z,101404.00
2022-10-23T09:38:46.955Z,101438.81
2022-10-23T09:41:19.548Z,101401.66
2022-10-23T09:43:46.094Z,101413.06
2022-10-23T09:46:12.888Z,101379.53
2022-10-23T09:48:42.194Z,101404.78
2022-10-23T09:51:20.949Z,101399.22
2022-10-23T09:53:55.315Z,101391.34
2022-10-23T09:56:33.222Z,101385.84
2022-10-23T09:59:12.985Z,101385.13
2022-10-23T10:01:48.871Z,101382.41
2022-10-23T10:04:15.654Z,101370.84
2022-10-23T10:09:16.518Z,101377.38
2022-10-23T10:11:54.017Z,101374.56
2022-10-23T10:14:39.874Z,101365.22
2022-10-23T10:17:30.880Z,101341.13
2022-10-23T10:20:12.162Z,101359.81
2022-10-23T10:22:46.756Z,101356.53
2022-10-23T10:25:36.144Z,101349.28
2022-10-23T10:28:11.345Z,101350.31
2022-10-23T10:31:02.888Z,101353.78
2022-10-23T10:33:54.758Z,101325.84
2022-10-23T10:36:49.124Z,101342.06
2022-10-23T10:39:27.628Z,101325.81
2022-10-23T10:42:26.526Z,101317.38
2022-10-23T10:45:20.581Z,101323.88
2022-10-23T10:47:51.675Z,101325.09
2022-10-23T10:50:27.864Z,101325.69
2022-10-23T10:53:14.742Z,101315.69
2022-10-23T10:55:42.650Z,101316.41
2022-10-23T10:58:21.302Z,101326.81
2022-10-23T11:00:53.126Z,101317.41
2022-10-23T11:03:34.972Z,101320.78
2022-10-23T11:06:13.033Z,101314.84
2022-10-23T11:08:56.140Z,101317.25
2022-10-23T11:11:31.990Z,101303.69
2022-10-23T11:13:58.526Z,101296.06
2022-10-23T11:16:29.769Z,101289.91
2022-10-23T11:19:20.343Z,101293.03
2022-10-23T11:21:56.923Z,101278.69
2022-10-23T11:24:44.107Z,101265.28
2022-10-23T11:27:41.512Z,101264.88
2022-10-23T11:30:17.031Z,101265.56
2022-10-23T11:33:00.577Z,101268.69
2022-10-23T11:35:35.015Z,101270.78
2022-10-23T11:38:14.615Z,101262.91
2022-10-23T11:43:30.743Z,101243.19
2022-10-23T11:45:58.113Z,101226.31
2022-10-23T11:48:40.646Z,101207.72
2022-10-23T11:51:27.412Z,101209.88
2022-10-23T11:54:04.403Z,101197.13
2022-10-23T11:56:31.234Z,101147.41
2022-10-23T11:58:59.119Z,101151.03
2022-10-23T12:01:39.299Z,101174.44
2022-10-23T12:04:14.899Z,101164.88
2022-10-23T12:06:47.793Z,101146.53
2022-10-23T12:09:31.952Z,101137.81
2022-10-23T12:12:30.577Z,101144.47
2022-10-23T12:15:09.099Z,101138.41
2022-10-23T12:17:37.991Z,101139.41
2022-10-23T12:20:19.381Z,101141.97
2022-10-23T12:23:01.539Z,101113.41
2022-10-23T12:25:52.163Z,101134.91
2022-10-23T12:28:44.696Z,101119.50
2022-10-23T12:31:26.740Z,101111.16
2022-10-23T12:33:53.105Z,101103.44
2022-10-23T12:36:43.000Z,101103.66
2022-10-23T12:39:33.340Z,101100.75
2022-10-23T12:42:00.955Z,101099.28
2022-10-23T12:44:28.874Z,101097.00
2022-10-23T12:46:59.022Z,101083.66
2022-10-23T12:49:28.671Z,101079.50
2022-10-23T12:52:04.174Z,101083.50
2022-10-23T12:54:32.716Z,101077.84
2022-10-23T12:56:59.326Z,101035.47
2022-10-23T12:59:37.107Z,101071.59
2022-10-23T13:02:34.101Z,101062.00
2022-10-23T13:05:05.508Z,101054.50
2022-10-23T13:07:37.212Z,101045.72
2022-10-23T13:10:05.225Z,101050.72
2022-10-23T13:12:35.321Z,101039.06
2022-10-23T13:15:06.114Z,101043.44
2022-10-23T13:17:46.392Z,101039.25
2022-10-23T13:20:23.721Z,101037.16
2022-10-23T13:23:00.480Z,101010.88
2022-10-23T13:25:32.965Z,101015.69
2022-10-23T13:28:08.191Z,101001.28
2022-10-23T13:30:41.999Z,100996.25
2022-10-23T13:33:20.633Z,100998.56
2022-10-23T13:36:01.520Z,100992.50
2022-10-23T13:38:29.733Z,100988.13
2022-10-23T13:40:59.048Z,100988.56
2022-10-23T13:43:26.695Z,100958.72
2022-10-23T13:45:53.148Z,100977.72
2022-10-23T13:48:20.995Z,100949.75
2022-10-23T13:50:47.483Z,100969.78
2022-10-23T13:53:14.526Z,100959.97
2022-10-23T13:55:43.763Z,100953.50
2022-10-23T13:58:11.086Z,100924.50
2022-10-23T14:00:38.687Z,100946.41
2022-10-23T14:03:05.619Z,100945.56
2022-10-23T14:05:32.116Z,100940.16
2022-10-23T14:07:58.484Z,100954.78
2022-10-23T14:10:27.595Z,100949.34
2022-10-23T14:12:54.967Z,100943.94
2022-10-23T14:15:22.039Z,100930.78
2022-10-23T14:17:48.416Z,100941.81
2022-10-23T14:20:17.295Z,100930.38
2022-10-23T14:22:45.162Z,100925.16
2022-10-23T14:25:11.901Z,100922.44
2022-10-23T14:27:38.289Z,100928.69
2022-10-23T14:30:05.690Z,100890.94
2022-10-23T14:32:32.022Z,100910.34
2022-10-23T14:34:58.524Z,100903.47
2022-10-23T14:37:24.928Z,100901.38
2022-10-23T14:39:51.272Z,100915.16
2022-10-23T14:42:18.162Z,100917.44
2022-10-23T14:44:44.940Z,100912.41
2022-10-23T14:47:11.609Z,100908.25
2022-10-23T14:49:39.997Z,100914.28
2022-10-23T14:52:06.757Z,100910.56
2022-10-23T14:54:35.184Z,100898.47
2022-10-23T14:57:02.269Z,100876.16
2022-10-23T14:59:28.675Z,100885.53
2022-10-23T15:01:55.136Z,100871.38
2022-10-23T15:04:21.484Z,100872.41
2022-10-23T15:06:47.865Z,100854.66
2022-10-23T15:09:14.990Z,100848.84
2022-10-23T15:11:41.548Z,100837.59
2022-10-23T15:14:08.013Z,100857.19
2022-10-23T15:16:40.980Z,100853.22
2022-10-23T15:19:12.117Z,100842.78
2022-10-23T15:21:42.011Z,100840.09
2022-10-23T15:24:08.503Z,100835.94
2022-10-23T15:26:34.927Z,100830.72
2022-10-23T15:29:02.065Z,100832.59
2022-10-23T15:31:37.626Z,100834.06
2022-10-23T15:34:05.508Z,100837.38
2022-10-23T15:36:32.269Z,100842.59
2022-10-23T15:38:58.672Z,100844.25
2022-10-23T15:41:32.784Z,100829.66
2022-10-23T15:44:00.393Z,100826.75
2022-10-23T15:46:26.797Z,100815.47
2022-10-23T15:48:53.710Z,100810.91
2022-10-23T15:51:20.329Z,100825.91
2022-10-23T15:53:46.779Z,100819.47
2022-10-23T15:56:13.142Z,100815.09
2022-10-23T15:58:39.771Z,100806.97
2022-10-23T16:01:06.825Z,100785.44
2022-10-23T16:03:34.857Z,100797.09
2022-10-23T16:06:06.059Z,100792.53
2022-10-23T16:08:32.544Z,100782.13
2022-10-23T16:10:59.751Z,100781.69
2022-10-23T16:13:26.874Z,100776.50
2022-10-23T16:15:54.061Z,100780.66
2022-10-23T16:18:22.294Z,100778.56
2022-10-23T16:20:50.842Z,100772.50
2022-10-23T16:23:17.495Z,100769.59
2022-10-23T16:25:43.862Z,100762.13
2022-10-23T16:28:10.227Z,100761.09
2022-10-23T16:30:43.876Z,100766.25
2022-10-23T16:33:10.419Z,100761.06
2022-10-23T16:35:37.263Z,100765.44
2022-10-23T16:38:03.866Z,100752.13
2022-10-23T16:40:30.295Z,100761.28
2022-10-23T16:42:57.854Z,100749.59
2022-10-23T16:45:24.324Z,100776.47
2022-10-23T16:47:50.747Z,100760.22
2022-10-23T16:50:17.209Z,100748.97
2022-10-23T16:52:43.848Z,100749.19
2022-10-23T16:55:10.414Z,100738.13
2022-10-23T16:57:36.910Z,100735.66
2022-10-23T17:00:05.363Z,100741.25
2022-10-23T17:02:32.271Z,100742.09
2022-10-23T17:04:58.835Z,100747.28
2022-10-23T17:07:25.379Z,100743.28
2022-10-23T17:09:51.727Z,100743.09
2022-10-23T17:12:18.130Z,100720.78
2022-10-23T17:14:44.496Z,100727.44
2022-10-23T17:17:11.072Z,100732.66
2022-10-23T17:19:45.181Z,100724.75
2022-10-23T17:22:13.520Z,100713.50
2022-10-23T17:24:41.431Z,100721.19
2022-10-23T17:27:07.943Z,100717.91
2022-10-23T17:29:34.429Z,100708.34
2022-10-23T17:32:00.928Z,100700.03
2022-10-23T17:34:27.322Z,100699.84
2022-10-23T17:36:55.204Z,100684.44
2022-10-23T17:39:24.891Z,100685.88
2022-10-23T17:41:51.943Z,100690.47
2022-10-23T17:44:18.815Z,100691.75
2022-10-23T17:46:45.317Z,100696.53
2022-10-23T17:49:12.675Z,100703.63
2022-10-23T17:51:39.222Z,100680.94
2022-10-23T17:54:08.388Z,100699.66
2022-10-23T17:56:37.519Z,100692.59
2022-10-23T17:59:15.521Z,100705.88
2022-10-23T18:01:46.717Z,100715.47
2022-10-23T18:04:14.235Z,100722.13
2022-10-23T18:06:44.599Z,100728.97
2022-10-23T18:09:11.271Z,100705.69
2022-10-23T18:11:45.271Z,100693.41
2022-10-23T18:14:13.497Z,100718.81
2022-10-23T18:16:40.721Z,100722.13
2022-10-23T18:19:07.979Z,100695.88
2022-10-23T18:21:35.762Z,100717.16
2022-10-23T18:24:02.370Z,100685.06
2022-10-23T18:26:31.193Z,100699.03
2022-10-23T18:28:59.172Z,100691.72
2022-10-23T18:31:27.635Z,100699.84
2022-10-23T18:34:04.078Z,100695.47
2022-10-23T18:36:33.532Z,100696.09
2022-10-23T18:39:00.064Z,100669.28
2022-10-23T18:41:27.082Z,100692.16
2022-10-23T18:43:54.640Z,100680.53
2022-10-23T18:46:21.731Z,100688.81
2022-10-23T18:48:50.741Z,100676.31
2022-10-23T18:51:20.505Z,100663.81
2022-10-23T18:53:47.997Z,100644.47
2022-10-23T18:56:22.657Z,100648.84
2022-10-23T18:58:54.971Z,100651.16
2022-10-23T19:01:23.224Z,100660.06
2022-10-23T19:03:50.159Z,100658.03
2022-10-23T19:06:17.179Z,100659.25
2022-10-23T19:08:44.786Z,100667.59
2022-10-23T19:11:13.099Z,100668.84
2022-10-23T19:13:40.445Z,100657.81
2022-10-23T19:16:10.579Z,100665.09
2022-10-23T19:18:40.569Z,100632.59
2022-10-23T19:21:07.688Z,100655.13
2022-10-23T19:23:36.493Z,100644.88
2022-10-23T19:26:08.964Z,100648.00
2022-10-23T19:28:43.240Z,100625.91
2022-10-23T19:31:10.455Z,100624.25
2022-10-23T19:33:38.914Z,100637.56
2022-10-23T19:36:07.195Z,100640.47
2022-10-23T19:38:36.532Z,100645.50
2022-10-23T19:41:03.914Z,100645.03
2022-10-23T19:43:30.482Z,100645.28
2022-10-23T19:45:59.797Z,100636.72
2022-10-23T19:48:26.329Z,100629.22
2022-10-23T19:50:52.860Z,100629.63
2022-10-23T19:53:19.971Z,100618.03
2022-10-23T19:55:46.419Z,100632.59
2022-10-23T19:58:12.934Z,100615.50
2022-10-23T20:00:39.528Z,100618.81
2022-10-23T20:03:06.006Z,100613.38
2022-10-23T20:05:32.880Z,100606.31
2022-10-23T20:07:59.717Z,100621.13
2022-10-23T20:10:26.186Z,100599.69
2022-10-23T20:12:57.104Z,100593.63
2022-10-23T20:15:40.362Z,100603.38
2022-10-23T20:18:06.796Z,100614.66
2022-10-23T20:20:33.229Z,100634.03
2022-10-23T20:23:00.757Z,100620.00
2022-10-23T20:25:27.500Z,100634.16
2022-10-23T20:27:53.925Z,100630.84
2022-10-23T20:30:20.359Z,100609.63
2022-10-23T20:32:46.895Z,100638.31
2022-10-23T20:35:13.478Z,100635.00
2022-10-23T20:37:39.896Z,100642.13
2022-10-23T20:40:06.903Z,100631.72
2022-10-23T20:42:33.332Z,100634.16
2022-10-23T20:44:59.713Z,100636.50
2022-10-23T20:47:26.115Z,100632.91
2022-10-23T20:49:52.473Z,100629.75
2022-10-23T20:52:18.860Z,100648.75
2022-10-23T20:54:45.213Z,100636.44
2022-10-23T20:57:11.634Z,100619.75
2022-10-23T20:59:38.052Z,100628.69
2022-10-23T21:02:04.498Z,100617.47
2022-10-23T21:04:30.968Z,100614.97
2022-10-23T21:07:14.094Z,100613.94
2022-10-23T21:09:40.557Z,100632.28
2022-10-23T21:12:07.851Z,100612.91
2022-10-23T21:14:35.500Z,100608.09
2022-10-23T21:17:02.342Z,100615.19
2022-10-23T21:19:28.719Z,100609.56
2022-10-23T21:21:55.289Z,100612.84
2022-10-23T21:24:21.675Z,100609.97
2022-10-23T21:26:48.087Z,100609.56
2022-10-23T21:29:18.981Z,100621.66
2022-10-23T21:31:55.830Z,100609.59
2022-10-23T21:34:23.636Z,100631.47
2022-10-23T21:39:36.442Z,100607.81
2022-10-23T21:42:02.831Z,100616.09
2022-10-23T21:44:29.224Z,100617.38
2022-10-23T21:46:55.718Z,100615.50
2022-10-23T21:49:22.187Z,100633.03
2022-10-23T21:51:48.522Z,100633.66
2022-10-23T21:54:15.098Z,100654.03
2022-10-23T21:56:45.692Z,100647.59
2022-10-23T21:59:14.490Z,100635.09
2022-10-23T22:01:43.248Z,100636.53
2022-10-23T22:04:11.168Z,100640.94
2022-10-23T22:06:38.571Z,100648.00
2022-10-23T22:09:08.528Z,100647.56
2022-10-23T22:11:35.083Z,100632.41
2022-10-23T22:14:01.495Z,100642.59
2022-10-23T22:16:28.053Z,100646.97
2022-10-23T22:18:54.573Z,100653.22
2022-10-23T22:21:24.133Z,100645.31
2022-10-23T22:23:51.412Z,100646.78
2022-10-23T22:26:30.893Z,100635.13
2022-10-23T22:29:01.228Z,100637.00
2022-10-23T22:31:31.933Z,100647.19
2022-10-23T22:34:08.567Z,100646.59
2022-10-23T22:36:45.320Z,100648.84
2022-10-23T22:39:12.445Z,100651.38
2022-10-23T22:41:39.088Z,100650.94
2022-10-23T22:44:05.577Z,100655.31
2022-10-23T22:46:32.421Z,100650.13
2022-10-23T22:48:59.108Z,100656.38
2022-10-23T22:51:27.651Z,100659.69
2022-10-23T22:53:54.652Z,100657.63
2022-10-23T22:56:23.900Z,100644.47
2022-10-23T22:58:51.172Z,100651.16
2022-10-23T23:01:42.563Z,100658.44
2022-10-23T23:04:19.684Z,100629.50
2022-10-23T23:06:57.436Z,100622.84
2022-10-23T23:09:23.843Z,100641.78
2022-10-23T23:11:51.642Z,100645.75
2022-10-23T23:14:22.911Z,100642.59
2022-10-23T23:16:51.076Z,100652.19
2022-10-23T23:19:17.479Z,100655.53
2022-10-23T23:21:43.881Z,100648.03
2022-10-23T23:24:11.960Z,100658.84
2022-10-23T23:26:38.336Z,100659.28
2022-10-23T23:29:04.805Z,100661.97
2022-10-23T23:31:31.216Z,100670.94
2022-10-23T23:33:57.617Z,100675.50
2022-10-23T23:36:26.520Z,100674.47
2022-10-23T23:38:53.315Z,100674.25
2022-10-23T23:41:21.245Z,100673.84
2022-10-23T23:43:48.662Z,100666.75
2022-10-23T23:46:15.936Z,100675.09
2022-10-23T23:48:47.332Z,100661.34
2022-10-23T23:51:19.503Z,100671.78
2022-10-23T23:53:46.288Z,100673.00
2022-10-23T23:56:13.302Z,100666.78
2022-10-23T23:58:39.757Z,100652.19
